Data for 05/12/2018

Time Sea-Level Adjusted Pressure Absolute Pressure Temperature Relative Humidity Dew Point   
(mb) (inHg) (mb) (inHg) (C) (F) (%) (C) (F)
00:05 1020 30.12 849 25.07 4.1 39.4 80 1 33.7
00:10 1020 30.12 849 25.07 4.1 39.4 79 0.9 33.6
00:15 1020 30.12 849 25.07 4.2 39.6 78 0.6 33.2
00:20 1020 30.12 849 25.07 4.2 39.6 78 0.7 33.3
00:25 1020 30.12 849 25.07 4.3 39.8 77 0.7 33.2
00:30 1020 30.12 849 25.07 4.3 39.8 77 0.7 33.2
00:35 1020 30.12 849 25.07 4.3 39.7 78 0.8 33.4
00:40 1020 30.12 849 25.07 4.3 39.7 77 0.6 33.1
00:45 1020 30.12 849 25.07 4.2 39.6 78 0.7 33.3
00:50 1020 30.12 849 25.07 4.2 39.6 79 0.8 33.5
00:55 1020 30.12 849 25.07 4.1 39.5 79 0.8 33.4
01:00 1020 30.12 849 25.07 4.1 39.4 79 0.9 33.5
01:05 1020 30.12 849 25.07 4.1 39.4 79 0.8 33.5
01:10 1020 30.12 849 25.07 4.1 39.3 80 0.9 33.7
01:15 1020 30.12 849 25.07 4 39.3 80 0.8 33.5
01:20 1020 30.12 849 25.07 4 39.2 80 0.8 33.5
01:25 1020 30.12 849 25.07 4 39.3 80 0.9 33.6
01:30 1020 30.12 849 25.07 4 39.2 79 0.7 33.2
01:35 1020 30.12 849 25.07 4 39.2 78 0.6 33
01:40 1020 30.12 849 25.07 3.9 39 80 0.7 33.3
01:45 1020 30.12 849 25.07 3.8 38.9 80 0.7 33.3
01:50 1020 30.12 849 25.07 3.8 38.9 80 0.6 33.1
01:55 1020 30.12 849 25.07 3.9 39 80 0.7 33.3
02:00 1020 30.12 849 25.07 3.8 38.9 81 0.8 33.5
02:05 1020 30.12 849 25.07 3.8 38.8 81 0.8 33.4
02:10 1020 30.12 849 25.07 3.7 38.7 80 0.7 33.2
02:15 1020 30.12 849 25.07 3.8 38.8 80 0.6 33.1
02:20 1020 30.12 849 25.07 3.7 38.7 81 0.7 33.3
02:25 1020 30.12 849 25.07 3.7 38.7 81 0.7 33.3
02:30 1020 30.12 849 25.07 3.7 38.6 81 0.7 33.2
02:35 1019 30.09 849 25.07 3.6 38.6 81 0.8 33.4
02:40 1019 30.09 849 25.07 3.7 38.6 81 0.7 33.3
02:45 1019 30.09 849 25.07 3.6 38.5 80 0.6 33
02:50 1019 30.09 848 25.04 3.6 38.5 80 0.6 33
02:55 1019 30.09 848 25.04 3.7 38.6 80 0.6 33
03:00 1019 30.09 848 25.04 3.7 38.6 80 0.5 32.9
03:05 1019 30.09 848 25.04 3.7 38.6 80 0.5 33
03:10 1019 30.09 848 25.04 3.6 38.6 80 0.5 32.9
03:15 1019 30.09 848 25.04 3.7 38.6 80 0.5 32.9
03:20 1019 30.09 848 25.04 3.7 38.7 79 0.4 32.8
03:25 1019 30.09 848 25.04 3.8 38.8 79 0.4 32.7
03:30 1019 30.09 848 25.04 3.7 38.7 79 0.4 32.7
03:35 1019 30.09 849 25.07 3.7 38.7 79 0.5 32.8
03:40 1019 30.09 849 25.07 3.7 38.6 80 0.5 33
03:45 1019 30.09 849 25.07 3.6 38.5 79 0.3 32.5
03:50 1019 30.09 849 25.07 3.7 38.6 79 0.4 32.8
03:55 1019 30.09 849 25.07 3.7 38.6 80 0.5 32.9
04:00 1019 30.09 849 25.07 3.6 38.4 80 0.5 33
04:05 1019 30.09 848 25.04 3.5 38.3 81 0.6 33
04:10 1019 30.09 848 25.04 3.5 38.2 81 0.5 32.9
04:15 1019 30.09 848 25.04 3.4 38.2 82 0.6 33
04:20 1019 30.09 848 25.04 3.4 38.2 81 0.5 33
04:25 1019 30.09 848 25.04 3.4 38.2 81 0.5 32.8
04:30 1019 30.09 848 25.04 3.5 38.3 80 0.4 32.7
04:35 1019 30.09 848 25.04 3.5 38.3 80 0.4 32.8
04:40 1019 30.09 848 25.04 3.5 38.4 80 0.4 32.7
04:45 1019 30.09 848 25.04 3.6 38.4 81 0.5 33
04:50 1019 30.09 848 25.04 3.5 38.3 81 0.5 32.8
04:55 1019 30.09 848 25.04 3.6 38.4 80 0.4 32.7
05:00 1019 30.09 848 25.04 3.6 38.6 80 0.4 32.8
05:05 1019 30.09 848 25.04 3.7 38.7 79 0.4 32.7
05:10 1019 30.09 848 25.04 3.8 38.8 78 0.3 32.6
05:15 1019 30.09 848 25.04 3.9 39 77 0.2 32.4
05:20 1019 30.09 848 25.04 4 39.2 76 0.2 32.4
05:25 1019 30.09 848 25.04 4 39.3 75 0 32.1
05:30 1019 30.09 848 25.04 4.2 39.5 74 -0 32
05:35 1019 30.09 848 25.04 4.2 39.5 77 0.4 32.7
05:40 1019 30.09 848 25.04 4 39.2 75 -0 32
05:45 1019 30.09 848 25.04 4.2 39.5 74 -0 31.9
05:50 1019 30.09 848 25.04 4.2 39.6 74 0 32.1
05:55 1019 30.09 848 25.04 4.2 39.6 75 0.1 32.3
06:00 1019 30.09 848 25.04 4.2 39.6 74 0 32.1
06:05 1019 30.09 848 25.04 4.2 39.6 75 0.2 32.3
06:10 1019 30.09 848 25.04 4.2 39.6 74 0 32
06:15 1019 30.09 848 25.04 4.2 39.6 75 0.2 32.4
06:20 1019 30.09 848 25.04 4.2 39.5 75 0.2 32.3
06:25 1019 30.09 848 25.04 4.2 39.5 74 0 32
06:30 1019 30.09 848 25.04 4.2 39.6 75 0.2 32.4
06:35 1019 30.09 848 25.04 4.3 39.7 74 -0 31.9
06:40 1019 30.09 848 25.04 4.3 39.8 74 0.1 32.2
06:45 1019 30.09 849 25.07 4.3 39.7 74 0 32.1
06:50 1019 30.09 849 25.07 4.3 39.8 73 -0 32
06:55 1019 30.09 849 25.07 4.4 39.9 73 0 32
07:00 1019 30.09 849 25.07 4.4 40 73 0 32.1
07:05 1019 30.09 849 25.07 4.5 40.1 72 -0.1 31.7
07:10 1020 30.12 849 25.07 4.4 40 73 0 32.1
07:15 1020 30.12 849 25.07 4.4 40 73 0 32
07:20 1020 30.12 849 25.07 4.5 40 74 0.2 32.4
07:25 1020 30.12 849 25.07 4.4 40 74 0.2 32.4
07:30 1020 30.12 849 25.07 4.4 39.9 76 0.5 32.8
07:35 1020 30.12 849 25.07 4.3 39.8 75 0.4 32.6
07:40 1020 30.12 849 25.07 4.3 39.7 75 0.3 32.6
07:45 1020 30.12 849 25.07 4.3 39.8 76 0.5 32.8
07:50 1020 30.12 849 25.07 4.3 39.8 75 0.2 32.4
07:55 1020 30.12 849 25.07 4.3 39.7 75 0.3 32.5
08:00 1020 30.12 849 25.07 4.3 39.7 75 0.2 32.4
08:05 1020 30.12 849 25.07 4.3 39.7 76 0.4 32.7
08:10 1020 30.12 849 25.07 4.3 39.7 76 0.4 32.7
08:15 1020 30.12 849 25.07 4.3 39.7 76 0.4 32.7
08:20 1020 30.12 849 25.07 4.4 39.8 75 0.3 32.5
08:25 1020 30.12 849 25.07 4.4 39.9 75 0.4 32.7
08:30 1020 30.12 849 25.07 4.5 40 75 0.4 32.8
08:35 1020 30.12 849 25.07 4.6 40.2 72 0 32
08:40 1020 30.12 849 25.07 4.7 40.4 72 0 32
08:45 1020 30.12 849 25.07 4.7 40.5 73 0.3 32.6
08:50 1020 30.12 849 25.07 4.8 40.6 71 0 32.1
08:55 1020 30.12 849 25.07 4.9 40.8 71 0.1 32.1
09:00 1020 30.12 849 25.07 4.9 40.9 71 0.1 32.2
09:05 1020 30.12 849 25.07 5 41 70 0 32.1
09:10 1020 30.12 849 25.07 5.1 41.2 70 0.1 32.2
09:15 1020 30.12 849 25.07 5.2 41.3 69 0 32
09:20 1020 30.12 849 25.07 5.2 41.3 69 -0 32
09:25 1019 30.09 849 25.07 5.3 41.5 69 -0 31.9
09:30 1019 30.09 849 25.07 5.3 41.5 68 -0.1 31.9
09:35 1019 30.09 849 25.07 5.3 41.6 68 -0.1 31.8
09:40 1019 30.09 849 25.07 5.3 41.5 68 -0.2 31.6
09:45 1019 30.09 849 25.07 5.3 41.5 67 -0.3 31.4
09:50 1019 30.09 849 25.07 5.3 41.6 67 -0.2 31.6
09:55 1019 30.09 849 25.07 5.3 41.6 69 0.1 32.1
10:00 1019 30.09 848 25.04 5.4 41.7 69 0.2 32.3
10:05 1019 30.09 848 25.04 5.4 41.8 68 0.1 32.1
10:10 1019 30.09 848 25.04 5.5 41.9 66 -0.3 31.5
10:15 1019 30.09 848 25.04 5.5 42 68 0 32.1
10:20 1019 30.09 849 25.07 5.6 42 68 0.1 32.2
10:25 1019 30.09 849 25.07 5.8 42.4 66 -0.2 31.7
10:30 1019 30.09 848 25.04 5.8 42.4 66 0 32
10:35 1019 30.09 849 25.07 6 42.8 66 0.2 32.4
10:40 1019 30.09 848 25.04 6.1 42.9 65 0.1 32.1
10:45 1019 30.09 848 25.04 6.1 43.1 65 -0 32
10:50 1019 30.09 848 25.04 6.2 43.2 66 0.4 32.7
10:55 1019 30.09 849 25.07 6.3 43.3 67 0.6 33.1
11:00 1019 30.09 849 25.07 6.4 43.5 67 0.6 33.2
11:05 1019 30.09 849 25.07 6.2 43.2 68 0.8 33.4
11:10 1019 30.09 849 25.07 6.2 43.2 68 0.8 33.4
11:15 1019 30.09 849 25.07 6.1 43.1 67 0.6 33.1
11:20 1019 30.09 849 25.07 6.2 43.1 67 0.6 33.1
11:25 1019 30.09 849 25.07 6.3 43.4 67 0.7 33.2
11:30 1019 30.09 849 25.07 6.8 44.2 64 0.3 32.6
11:35 1019 30.09 849 25.07 6.8 44.3 64 0.4 32.8
11:40 1019 30.09 849 25.07 6.7 44.1 64 0.5 32.8
11:45 1019 30.09 849 25.07 6.9 44.4 64 0.6 33.2
11:50 1019 30.09 849 25.07 6.9 44.4 65 0.9 33.5
11:55 1019 30.09 849 25.07 6.8 44.3 65 0.8 33.4
12:00 1019 30.09 849 25.07 6.7 44.1 64 0.5 32.9
12:05 1019 30.09 849 25.07 6.9 44.5 64 0.6 33
12:10 1019 30.09 849 25.07 7 44.6 65 1 33.8
12:15 1019 30.09 849 25.07 7.3 45.1 62 0.5 32.9
12:20 1019 30.09 849 25.07 7.4 45.4 64 1.1 34
12:25 1019 30.09 849 25.07 7.6 45.6 62 0.7 33.3
12:30 1019 30.09 849 25.07 7.4 45.3 63 0.8 33.5
12:35 1019 30.09 849 25.07 7.5 45.4 63 0.9 33.6
12:40 1019 30.09 849 25.07 7.5 45.4 63 1 33.7
12:45 1019 30.09 849 25.07 7.3 45.1 61 0.3 32.6
12:50 1019 30.09 849 25.07 7.5 45.5 60 0.2 32.4
12:55 1019 30.09 849 25.07 7.6 45.6 59 0.1 32.2
13:00 1019 30.09 848 25.04 7.7 45.8 59 0.1 32.2
13:05 1019 30.09 848 25.04 7.7 45.8 58 0.1 32.1
13:10 1019 30.09 848 25.04 7.8 46 58 0.1 32.2
13:15 1019 30.09 848 25.04 7.8 46.1 58 0.1 32.2
13:20 1019 30.09 848 25.04 7.8 46 58 0.2 32.3
13:25 1019 30.09 848 25.04 7.9 46.3 58 0.1 32.2
13:30 1019 30.09 848 25.04 8.1 46.6 57 0.3 32.5
13:35 1019 30.09 848 25.04 8.2 46.8 58 0.5 33
13:40 1019 30.09 848 25.04 8 46.3 58 0.3 32.6
13:45 1019 30.09 848 25.04 8.3 47 58 0.5 33
13:50 1019 30.09 848 25.04 8.2 46.7 57 0.3 32.5
13:55 1019 30.09 848 25.04 8.2 46.7 58 0.3 32.6
14:00 1019 30.09 848 25.04 8.1 46.6 59 0.6 33.2
14:05 1019 30.09 848 25.04 8.1 46.5 59 0.5 33
14:10 1019 30.09 848 25.04 8.2 46.8 58 0.5 33
14:15 1019 30.09 848 25.04 8.4 47 58 0.5 32.9
14:20 1019 30.09 848 25.04 8.3 46.9 58 0.6 33
14:25 1019 30.09 848 25.04 8.1 46.7 60 0.8 33.4
14:30 1019 30.09 848 25.04 8.2 46.8 60 1 33.7
14:35 1019 30.09 848 25.04 8.2 46.8 60 0.9 33.6
14:40 1019 30.09 848 25.04 7.8 46.1 61 0.8 33.4
14:45 1019 30.09 848 25.04 7.8 46 61 0.7 33.3
14:50 1019 30.09 848 25.04 7.8 46.1 61 0.8 33.4
14:55 1019 30.09 848 25.04 7.6 45.7 62 0.9 33.7
15:00 1019 30.09 848 25.04 7.7 45.8 62 0.9 33.6
15:05 1019 30.09 848 25.04 8 46.4 59 0.4 32.7
15:10 1019 30.09 848 25.04 8.4 47 59 0.8 33.4
15:15 1019 30.09 848 25.04 8.6 47.4 56 0.4 32.6
15:20 1019 30.09 848 25.04 8.6 47.4 57 0.5 33
15:25 1019 30.09 848 25.04 9 48.2 56 0.8 33.4
15:30 1019 30.09 848 25.04 9.2 48.5 54 0.5 32.9
15:35 1019 30.09 848 25.04 9.3 48.8 55 0.8 33.4
15:40 1019 30.09 848 25.04 9.2 48.6 55 0.8 33.4
15:45 1019 30.09 848 25.04 8.8 47.8 57 0.8 33.4
15:50 1019 30.09 848 25.04 8.3 46.9 60 1 33.7
15:55 1019 30.09 848 25.04 8 46.4 61 0.9 33.7
16:00 1019 30.09 848 25.04 8.1 46.6 61 1.1 34
16:05 1019 30.09 848 25.04 8.3 47 61 1.3 34.3
16:10 1019 30.09 848 25.04 8.6 47.5 59 1.2 34.1
16:15 1019 30.09 848 25.04 9.2 48.6 56 0.9 33.5
16:20 1019 30.09 848 25.04 9.4 48.8 56 1 33.8
16:25 1018 30.06 848 25.04 9.5 49.1 56 1.1 34.1
16:30 1018 30.06 848 25.04 9.5 49.1 56 1.2 34.1
16:35 1018 30.06 848 25.04 9.4 49 55 0.8 33.4
16:40 1018 30.06 848 25.04 9.9 49.8 55 1.3 34.3
16:45 1018 30.06 848 25.04 9.9 49.9 54 1.2 34.1
16:50 1018 30.06 848 25.04 9.6 49.4 54 0.8 33.4
16:55 1018 30.06 848 25.04 9.5 49 56 1.2 34.1
17:00 1018 30.06 848 25.04 9.4 49 56 1.1 34
17:05 1018 30.06 848 25.04 9.3 48.7 57 1.1 34
17:10 1018 30.06 848 25.04 9.3 48.7 55 0.8 33.4
17:15 1018 30.06 848 25.04 9.2 48.6 58 1.3 34.4
17:20 1018 30.06 848 25.04 9.1 48.4 57 1.2 34.1
17:25 1018 30.06 848 25.04 9.3 48.7 57 1.2 34.2
17:30 1018 30.06 847 25.01 9 48.3 57 1.1 34
17:35 1018 30.06 848 25.04 9 48.1 58 1.2 34.2
17:40 1018 30.06 848 25.04 9.1 48.3 58 1.2 34.2
17:45 1018 30.06 848 25.04 8.8 47.8 59 1.2 34.2
17:50 1018 30.06 848 25.04 8.6 47.4 60 1.3 34.3
17:55 1018 30.06 848 25.04 8.6 47.5 59 1.1 34
18:00 1018 30.06 848 25.04 8.7 47.6 60 1.5 34.7
18:05 1018 30.06 848 25.04 8.5 47.3 62 1.6 34.9
18:10 1018 30.06 848 25.04 8.2 46.8 63 1.6 34.9
18:15 1018 30.06 848 25.04 8.2 46.7 62 1.4 34.6
18:20 1018 30.06 848 25.04 8.3 47 62 1.5 34.8
18:25 1018 30.06 848 25.04 8.5 47.3 62 1.7 35.1
18:30 1018 30.06 848 25.04 8.5 47.3 63 1.8 35.3
18:35 1018 30.06 848 25.04 8.6 47.4 61 1.6 34.9
18:40 1018 30.06 848 25.04 8.7 47.7 61 1.7 35
18:45 1018 30.06 848 25.04 8.5 47.2 63 1.8 35.3
18:50 1018 30.06 848 25.04 8.2 46.8 64 1.9 35.5
18:55 1018 30.06 848 25.04 8.1 46.5 66 2.1 35.7
19:00 1018 30.06 848 25.04 7.9 46.3 66 2 35.7
19:05 1018 30.06 848 25.04 7.7 45.9 67 2 35.6
19:10 1018 30.06 848 25.04 7.6 45.7 67 1.9 35.4
19:15 1018 30.06 848 25.04 7.6 45.6 67 1.9 35.4
19:20 1018 30.06 848 25.04 7.5 45.4 66 1.6 34.9
19:25 1018 30.06 848 25.04 7.4 45.3 67 1.7 35.1
19:30 1018 30.06 848 25.04 7.3 45.1 67 1.6 34.9
19:35 1018 30.06 848 25.04 7.2 44.9 68 1.7 35.1
19:40 1018 30.06 848 25.04 7.1 44.7 68 1.7 35
19:45 1018 30.06 848 25.04 7 44.5 69 1.7 35.1
19:50 1018 30.06 848 25.04 6.9 44.5 70 1.8 35.2
19:55 1018 30.06 847 25.01 6.8 44.3 70 1.8 35.3
20:00 1018 30.06 847 25.01 6.7 44.1 71 1.8 35.2
20:05 1018 30.06 847 25.01 6.6 43.9 71 1.8 35.2
20:10 1018 30.06 847 25.01 6.6 43.8 71 1.7 35.1
20:15 1018 30.06 847 25.01 6.6 43.8 71 1.7 35
20:20 1018 30.06 848 25.04 6.5 43.7 71 1.7 35.1
20:25 1018 30.06 848 25.04 6.5 43.7 72 1.7 35.1
20:30 1018 30.06 848 25.04 6.5 43.6 72 1.7 35.1
20:35 1018 30.06 848 25.04 6.4 43.5 72 1.7 35
20:40 1018 30.06 848 25.04 6.4 43.5 71 1.6 34.9
20:45 1018 30.06 848 25.04 6.4 43.5 72 1.7 35
20:50 1018 30.06 848 25.04 6.3 43.4 73 1.8 35.3
20:55 1019 30.09 848 25.04 6.2 43.2 73 1.8 35.2
21:00 1019 30.09 848 25.04 6.1 43 74 1.8 35.3
21:05 1019 30.09 848 25.04 6.1 42.9 74 1.8 35.3
21:10 1019 30.09 848 25.04 6 42.9 74 1.7 35.1
21:15 1019 30.09 848 25.04 6 42.8 74 1.7 35
21:20 1019 30.09 848 25.04 6 42.8 73 1.5 34.7
21:25 1019 30.09 848 25.04 6 42.8 73 1.6 34.9
21:30 1019 30.09 848 25.04 6 42.8 74 1.7 35
21:35 1019 30.09 848 25.04 6 42.7 74 1.6 34.9
21:40 1019 30.09 848 25.04 5.9 42.7 74 1.6 34.9
21:45 1019 30.09 848 25.04 5.9 42.6 74 1.6 34.9
21:50 1019 30.09 848 25.04 5.9 42.5 75 1.8 35.2
21:55 1019 30.09 848 25.04 5.8 42.4 75 1.7 35
22:00 1019 30.09 848 25.04 5.7 42.3 76 1.8 35.2
22:05 1019 30.09 848 25.04 5.7 42.2 75 1.6 34.8
22:10 1019 30.09 849 25.07 5.7 42.2 75 1.6 34.9
22:15 1019 30.09 849 25.07 5.7 42.2 75 1.6 34.9
22:20 1019 30.09 849 25.07 5.7 42.2 75 1.7 35
22:25 1019 30.09 849 25.07 5.6 42.1 76 1.7 35.1
22:30 1019 30.09 849 25.07 5.6 42.1 75 1.6 34.8
22:35 1019 30.09 849 25.07 5.6 42.2 76 1.7 35.1
22:40 1019 30.09 849 25.07 5.6 42.1 75 1.6 34.8
22:45 1019 30.09 849 25.07 5.7 42.2 74 1.4 34.5
22:50 1019 30.09 849 25.07 5.7 42.2 75 1.5 34.7
22:55 1019 30.09 849 25.07 5.6 42.2 75 1.5 34.7
23:00 1019 30.09 849 25.07 5.6 42.1 75 1.6 34.9
23:05 1019 30.09 849 25.07 5.6 42 75 1.6 34.8
23:10 1019 30.09 849 25.07 5.5 42 76 1.6 34.9
23:15 1019 30.09 849 25.07 5.5 41.9 76 1.7 35
23:20 1019 30.09 848 25.04 5.5 41.9 76 1.6 34.9
23:25 1019 30.09 848 25.04 5.5 41.9 76 1.6 34.9
23:30 1019 30.09 848 25.04 5.4 41.7 76 1.6 34.9
23:35 1019 30.09 848 25.04 5.3 41.6 77 1.6 34.8
23:40 1019 30.09 848 25.04 5.3 41.6 76 1.4 34.6
23:45 1019 30.09 848 25.04 5.3 41.6 76 1.4 34.6
23:50 1019 30.09 848 25.04 5.3 41.6 76 1.4 34.5
23:55 1019 30.09 848 25.04 5.3 41.6 76 1.5 34.6
24:00 1019 30.09 848 25.04 5.2 41.4 76 1.4 34.5